KGSB/GSB METAR and TAF weather

Enter ICAO airport designator
Station Type Date Time Source
KGSB METAR 2018/12/11 18:56 UTC NOAA

KGSB 111856Z AUTO 29010KT 10SM CLR 09/M04 A3009 RMK AO2 SLP193 T00901042 $


Station Type Date Time Source
KGSB Decoded METAR 2018/12/11 18:56 UTC NOAA

Seymour-Johnson Air Force Base, NC, United States (KGSB) 35-20N 077-58W
Dec 11, 2018 - 01:56 PM EST / 2018.12.11 1856 UTC
Wind: from the WNW (290 degrees) at 12 MPH (10 KT):0
Visibility: 10 mile(s):0
Sky conditions: clear
Temperature: 48.2 F (9.0 C)
Dew Point: 24.4 F (-4.2 C)
Relative Humidity: 39%
Pressure (altimeter): 30.09 in. Hg (1018 hPa)
ob: KGSB 111856Z AUTO 29010KT 10SM CLR 09/M04 A3009 RMK AO2 SLP193 T00901042
cycle: 19

Station Type Date Time Source
KGSB TAF 2018/12/11 14:46 UTC NOAA

TAF
AMD KGSB 111430Z 1114/1219 34009KT 9999 BKN100 QNH3011INS
BECMG 1114/1115 33007KT 9999 SKC QNH3012INS
BECMG 1200/1201 26004KT 9999 SKC QNH3014INS TX09/1119Z TNM03/1212Z


Example: see airport list